sensor_id;sensor_type;location;lat;lon;timestamp;P1;durP1;ratioP1;P2;durP2;ratioP2
50853;SDS011;44154;45.506;-122.806;2023-03-04T00:02:01;3.90;;;2.67;;
50853;SDS011;44154;45.506;-122.806;2023-03-04T00:04:28;3.20;;;2.50;;
50853;SDS011;44154;45.506;-122.806;2023-03-04T00:06:54;5.03;;;2.80;;
50853;SDS011;44154;45.506;-122.806;2023-03-04T00:09:20;3.63;;;2.55;;
50853;SDS011;44154;45.506;-122.806;2023-03-04T00:11:46;4.13;;;2.50;;
50853;SDS011;44154;45.506;-122.806;2023-03-04T00:14:13;3.20;;;2.08;;
50853;SDS011;44154;45.506;-122.806;2023-03-04T00:16:39;2.78;;;2.05;;
50853;SDS011;44154;45.506;-122.806;2023-03-04T00:19:05;3.08;;;2.30;;
50853;SDS011;44154;45.506;-122.806;2023-03-04T00:21:31;3.60;;;2.33;;
50853;SDS011;44154;45.506;-122.806;2023-03-04T00:23:57;2.25;;;1.52;;
50853;SDS011;44154;45.506;-122.806;2023-03-04T00:26:23;2.83;;;1.75;;
50853;SDS011;44154;45.506;-122.806;2023-03-04T00:28:49;1.50;;;1.10;;
50853;SDS011;44154;45.506;-122.806;2023-03-04T00:31:16;2.60;;;1.58;;
50853;SDS011;44154;45.506;-122.806;2023-03-04T00:33:42;2.08;;;1.40;;
50853;SDS011;44154;45.506;-122.806;2023-03-04T00:36:09;4.35;;;1.63;;
50853;SDS011;44154;45.506;-122.806;2023-03-04T00:38:35;3.40;;;1.38;;
50853;SDS011;44154;45.506;-122.806;2023-03-04T00:41:02;4.72;;;1.50;;
50853;SDS011;44154;45.506;-122.806;2023-03-04T00:43:28;3.08;;;1.33;;
50853;SDS011;44154;45.506;-122.806;2023-03-04T00:45:55;2.60;;;1.25;;
50853;SDS011;44154;45.506;-122.806;2023-03-04T00:48:21;2.50;;;1.27;;
50853;SDS011;44154;45.506;-122.806;2023-03-04T00:50:48;3.97;;;1.38;;
50853;SDS011;44154;45.506;-122.806;2023-03-04T00:53:16;2.58;;;1.10;;
50853;SDS011;44154;45.506;-122.806;2023-03-04T00:55:42;2.28;;;1.23;;
50853;SDS011;44154;45.506;-122.806;2023-03-04T00:58:08;7.55;;;1.20;;
50853;SDS011;44154;45.506;-122.806;2023-03-04T01:00:34;2.83;;;1.50;;
50853;SDS011;44154;45.506;-122.806;2023-03-04T01:03:00;1.90;;;1.10;;
50853;SDS011;44154;45.506;-122.806;2023-03-04T01:05:26;1.70;;;0.90;;
50853;SDS011;44154;45.506;-122.806;2023-03-04T01:07:53;1.50;;;0.80;;
50853;SDS011;44154;45.506;-122.806;2023-03-04T01:10:19;0.88;;;0.60;;
50853;SDS011;44154;45.506;-122.806;2023-03-04T01:12:45;2.22;;;0.90;;
50853;SDS011;44154;45.506;-122.806;2023-03-04T01:15:12;3.80;;;0.90;;
50853;SDS011;44154;45.506;-122.806;2023-03-04T01:17:39;2.10;;;0.90;;
50853;SDS011;44154;45.506;-122.806;2023-03-04T01:20:06;1.88;;;0.70;;
50853;SDS011;44154;45.506;-122.806;2023-03-04T01:22:33;1.73;;;0.82;;
50853;SDS011;44154;45.506;-122.806;2023-03-04T01:24:59;1.73;;;0.70;;
50853;SDS011;44154;45.506;-122.806;2023-03-04T01:27:25;2.33;;;0.80;;
50853;SDS011;44154;45.506;-122.806;2023-03-04T01:29:51;3.28;;;0.75;;
50853;SDS011;44154;45.506;-122.806;2023-03-04T01:32:18;4.80;;;0.95;;
50853;SDS011;44154;45.506;-122.806;2023-03-04T01:34:44;2.17;;;1.00;;
50853;SDS011;44154;45.506;-122.806;2023-03-04T01:37:10;3.13;;;0.73;;
50853;SDS011;44154;45.506;-122.806;2023-03-04T01:39:38;7.13;;;1.83;;
50853;SDS011;44154;45.506;-122.806;2023-03-04T01:42:04;3.97;;;1.00;;
50853;SDS011;44154;45.506;-122.806;2023-03-04T01:44:31;4.22;;;0.90;;
50853;SDS011;44154;45.506;-122.806;2023-03-04T01:46:58;3.10;;;0.90;;
50853;SDS011;44154;45.506;-122.806;2023-03-04T01:49:24;2.55;;;0.80;;
50853;SDS011;44154;45.506;-122.806;2023-03-04T01:51:52;5.32;;;0.88;;
50853;SDS011;44154;45.506;-122.806;2023-03-04T01:54:19;3.83;;;0.80;;
50853;SDS011;44154;45.506;-122.806;2023-03-04T01:56:47;1.40;;;0.35;;
50853;SDS011;44154;45.506;-122.806;2023-03-04T01:59:17;1.13;;;0.55;;
50853;SDS011;44154;45.506;-122.806;2023-03-04T02:01:55;2.90;;;0.55;;
50853;SDS011;44154;45.506;-122.806;2023-03-04T02:04:27;2.90;;;0.65;;
50853;SDS011;44154;45.506;-122.806;2023-03-04T02:06:57;1.85;;;0.70;;
50853;SDS011;44154;45.506;-122.806;2023-03-04T02:09:25;2.22;;;0.40;;
50853;SDS011;44154;45.506;-122.806;2023-03-04T02:11:51;1.75;;;0.50;;
50853;SDS011;44154;45.506;-122.806;2023-03-04T02:14:18;3.58;;;0.60;;
50853;SDS011;44154;45.506;-122.806;2023-03-04T02:16:44;3.33;;;0.60;;
50853;SDS011;44154;45.506;-122.806;2023-03-04T02:21:43;8.70;;;0.95;;
50853;SDS011;44154;45.506;-122.806;2023-03-04T02:24:14;6.53;;;1.17;;
50853;SDS011;44154;45.506;-122.806;2023-03-04T02:26:48;4.20;;;0.90;;
50853;SDS011;44154;45.506;-122.806;2023-03-04T02:29:15;7.93;;;0.85;;
50853;SDS011;44154;45.506;-122.806;2023-03-04T02:31:46;5.82;;;0.80;;
50853;SDS011;44154;45.506;-122.806;2023-03-04T02:34:15;3.58;;;1.05;;
50853;SDS011;44154;45.506;-122.806;2023-03-04T02:36:42;2.75;;;0.65;;
50853;SDS011;44154;45.506;-122.806;2023-03-04T02:39:19;0.90;;;0.40;;
50853;SDS011;44154;45.506;-122.806;2023-03-04T02:41:46;1.70;;;0.35;;
50853;SDS011;44154;45.506;-122.806;2023-03-04T02:46:44;2.05;;;0.22;;
50853;SDS011;44154;45.506;-122.806;2023-03-04T02:49:11;2.95;;;0.40;;
50853;SDS011;44154;45.506;-122.806;2023-03-04T02:51:38;2.55;;;0.30;;
50853;SDS011;44154;45.506;-122.806;2023-03-04T02:54:11;1.30;;;0.40;;
50853;SDS011;44154;45.506;-122.806;2023-03-04T02:56:44;1.30;;;0.40;;
50853;SDS011;44154;45.506;-122.806;2023-03-04T02:59:14;3.50;;;0.40;;
50853;SDS011;44154;45.506;-122.806;2023-03-04T03:01:40;1.50;;;0.50;;
50853;SDS011;44154;45.506;-122.806;2023-03-04T03:04:07;0.75;;;0.40;;
50853;SDS011;44154;45.506;-122.806;2023-03-04T03:06:33;0.63;;;0.35;;
50853;SDS011;44154;45.506;-122.806;2023-03-04T03:08:59;1.25;;;0.30;;
50853;SDS011;44154;45.506;-122.806;2023-03-04T03:11:26;2.15;;;0.40;;
50853;SDS011;44154;45.506;-122.806;2023-03-04T03:13:52;1.75;;;0.40;;
50853;SDS011;44154;45.506;-122.806;2023-03-04T03:16:18;0.88;;;0.20;;
50853;SDS011;44154;45.506;-122.806;2023-03-04T03:18:44;1.00;;;0.38;;
50853;SDS011;44154;45.506;-122.806;2023-03-04T03:21:10;0.80;;;0.30;;
50853;SDS011;44154;45.506;-122.806;2023-03-04T03:23:36;1.58;;;0.40;;
50853;SDS011;44154;45.506;-122.806;2023-03-04T03:26:02;0.80;;;0.30;;
50853;SDS011;44154;45.506;-122.806;2023-03-04T03:28:29;0.68;;;0.20;;
50853;SDS011;44154;45.506;-122.806;2023-03-04T03:30:56;1.42;;;0.30;;
50853;SDS011;44154;45.506;-122.806;2023-03-04T03:33:22;0.85;;;0.30;;
50853;SDS011;44154;45.506;-122.806;2023-03-04T03:35:48;3.20;;;0.50;;
50853;SDS011;44154;45.506;-122.806;2023-03-04T03:38:14;1.15;;;0.40;;
50853;SDS011;44154;45.506;-122.806;2023-03-04T03:40:40;3.65;;;0.50;;
50853;SDS011;44154;45.506;-122.806;2023-03-04T03:43:07;4.47;;;0.60;;
50853;SDS011;44154;45.506;-122.806;2023-03-04T03:45:33;2.75;;;0.50;;
50853;SDS011;44154;45.506;-122.806;2023-03-04T03:47:59;2.33;;;0.30;;
50853;SDS011;44154;45.506;-122.806;2023-03-04T03:50:25;4.45;;;0.65;;
50853;SDS011;44154;45.506;-122.806;2023-03-04T03:52:53;3.47;;;0.50;;
50853;SDS011;44154;45.506;-122.806;2023-03-04T03:55:20;4.47;;;0.75;;
50853;SDS011;44154;45.506;-122.806;2023-03-04T03:57:46;1.85;;;0.70;;
50853;SDS011;44154;45.506;-122.806;2023-03-04T04:00:12;2.30;;;0.95;;
50853;SDS011;44154;45.506;-122.806;2023-03-04T04:02:40;3.53;;;0.90;;
50853;SDS011;44154;45.506;-122.806;2023-03-04T04:05:07;7.47;;;2.22;;
50853;SDS011;44154;45.506;-122.806;2023-03-04T04:07:35;4.20;;;1.90;;
50853;SDS011;44154;45.506;-122.806;2023-03-04T04:10:02;2.45;;;1.00;;
50853;SDS011;44154;45.506;-122.806;2023-03-04T04:12:29;2.85;;;1.20;;
50853;SDS011;44154;45.506;-122.806;2023-03-04T04:14:55;2.45;;;0.73;;
50853;SDS011;44154;45.506;-122.806;2023-03-04T04:17:21;3.28;;;1.17;;
50853;SDS011;44154;45.506;-122.806;2023-03-04T04:19:48;3.95;;;1.30;;
50853;SDS011;44154;45.506;-122.806;2023-03-04T04:22:14;3.03;;;1.20;;
50853;SDS011;44154;45.506;-122.806;2023-03-04T04:24:42;3.55;;;1.02;;
50853;SDS011;44154;45.506;-122.806;2023-03-04T04:27:09;2.30;;;1.00;;
50853;SDS011;44154;45.506;-122.806;2023-03-04T04:29:36;6.50;;;1.40;;
50853;SDS011;44154;45.506;-122.806;2023-03-04T04:32:02;8.45;;;4.78;;
50853;SDS011;44154;45.506;-122.806;2023-03-04T04:34:28;7.45;;;2.40;;
50853;SDS011;44154;45.506;-122.806;2023-03-04T04:36:55;5.60;;;2.83;;
50853;SDS011;44154;45.506;-122.806;2023-03-04T04:39:21;5.22;;;2.40;;
50853;SDS011;44154;45.506;-122.806;2023-03-04T04:41:47;4.57;;;1.73;;
50853;SDS011;44154;45.506;-122.806;2023-03-04T04:44:14;4.63;;;1.80;;
50853;SDS011;44154;45.506;-122.806;2023-03-04T04:46:40;3.30;;;1.77;;
50853;SDS011;44154;45.506;-122.806;2023-03-04T04:49:07;3.78;;;2.20;;
50853;SDS011;44154;45.506;-122.806;2023-03-04T04:51:35;4.22;;;2.03;;
50853;SDS011;44154;45.506;-122.806;2023-03-04T04:54:03;3.00;;;1.70;;
50853;SDS011;44154;45.506;-122.806;2023-03-04T04:56:30;3.83;;;2.83;;
50853;SDS011;44154;45.506;-122.806;2023-03-04T04:58:58;7.47;;;4.32;;
50853;SDS011;44154;45.506;-122.806;2023-03-04T05:01:26;5.95;;;4.13;;
50853;SDS011;44154;45.506;-122.806;2023-03-04T05:03:53;4.22;;;2.47;;
50853;SDS011;44154;45.506;-122.806;2023-03-04T05:06:19;4.22;;;2.20;;
50853;SDS011;44154;45.506;-122.806;2023-03-04T05:08:46;3.20;;;2.22;;
50853;SDS011;44154;45.506;-122.806;2023-03-04T05:11:13;2.95;;;1.98;;
50853;SDS011;44154;45.506;-122.806;2023-03-04T05:13:40;4.18;;;2.60;;
50853;SDS011;44154;45.506;-122.806;2023-03-04T05:16:06;4.20;;;2.55;;
50853;SDS011;44154;45.506;-122.806;2023-03-04T05:18:33;3.17;;;2.10;;
50853;SDS011;44154;45.506;-122.806;2023-03-04T05:21:00;4.40;;;2.00;;
50853;SDS011;44154;45.506;-122.806;2023-03-04T05:23:28;7.95;;;4.97;;
50853;SDS011;44154;45.506;-122.806;2023-03-04T05:25:57;5.05;;;3.92;;
50853;SDS011;44154;45.506;-122.806;2023-03-04T05:28:24;5.57;;;4.90;;
50853;SDS011;44154;45.506;-122.806;2023-03-04T05:30:50;4.20;;;2.88;;
50853;SDS011;44154;45.506;-122.806;2023-03-04T05:33:17;4.05;;;3.30;;
50853;SDS011;44154;45.506;-122.806;2023-03-04T05:35:43;3.83;;;2.92;;
50853;SDS011;44154;45.506;-122.806;2023-03-04T05:38:13;4.18;;;3.20;;
50853;SDS011;44154;45.506;-122.806;2023-03-04T05:40:41;4.47;;;2.95;;
50853;SDS011;44154;45.506;-122.806;2023-03-04T05:43:08;4.43;;;3.30;;
50853;SDS011;44154;45.506;-122.806;2023-03-04T05:45:35;3.95;;;2.80;;
50853;SDS011;44154;45.506;-122.806;2023-03-04T05:48:02;4.13;;;3.08;;
50853;SDS011;44154;45.506;-122.806;2023-03-04T05:50:29;6.40;;;5.57;;
50853;SDS011;44154;45.506;-122.806;2023-03-04T05:52:56;6.45;;;5.60;;
50853;SDS011;44154;45.506;-122.806;2023-03-04T05:55:22;6.63;;;5.88;;
50853;SDS011;44154;45.506;-122.806;2023-03-04T05:57:49;4.85;;;3.97;;
50853;SDS011;44154;45.506;-122.806;2023-03-04T06:00:15;5.70;;;3.88;;
50853;SDS011;44154;45.506;-122.806;2023-03-04T06:02:42;5.13;;;3.58;;
50853;SDS011;44154;45.506;-122.806;2023-03-04T06:05:09;5.30;;;3.17;;
50853;SDS011;44154;45.506;-122.806;2023-03-04T06:07:36;4.97;;;3.60;;
50853;SDS011;44154;45.506;-122.806;2023-03-04T06:10:03;4.40;;;3.75;;
50853;SDS011;44154;45.506;-122.806;2023-03-04T06:12:30;4.93;;;4.05;;
50853;SDS011;44154;45.506;-122.806;2023-03-04T06:14:56;5.38;;;3.67;;
50853;SDS011;44154;45.506;-122.806;2023-03-04T06:17:22;9.05;;;7.68;;
50853;SDS011;44154;45.506;-122.806;2023-03-04T06:19:48;9.05;;;8.15;;
50853;SDS011;44154;45.506;-122.806;2023-03-04T06:22:14;7.88;;;7.03;;
50853;SDS011;44154;45.506;-122.806;2023-03-04T06:24:40;7.38;;;4.88;;
50853;SDS011;44154;45.506;-122.806;2023-03-04T06:27:06;5.97;;;4.45;;
50853;SDS011;44154;45.506;-122.806;2023-03-04T06:29:32;11.30;;;4.50;;
50853;SDS011;44154;45.506;-122.806;2023-03-04T06:31:59;7.22;;;4.32;;
50853;SDS011;44154;45.506;-122.806;2023-03-04T06:34:25;12.13;;;4.65;;
50853;SDS011;44154;45.506;-122.806;2023-03-04T06:36:52;8.20;;;4.43;;
50853;SDS011;44154;45.506;-122.806;2023-03-04T06:39:18;7.65;;;4.75;;
50853;SDS011;44154;45.506;-122.806;2023-03-04T06:41:44;6.93;;;4.55;;
50853;SDS011;44154;45.506;-122.806;2023-03-04T06:44:10;6.53;;;5.50;;
50853;SDS011;44154;45.506;-122.806;2023-03-04T06:46:37;9.20;;;4.55;;
50853;SDS011;44154;45.506;-122.806;2023-03-04T06:49:03;13.07;;;10.55;;
50853;SDS011;44154;45.506;-122.806;2023-03-04T06:51:29;12.20;;;11.00;;
50853;SDS011;44154;45.506;-122.806;2023-03-04T06:53:55;8.93;;;6.20;;
50853;SDS011;44154;45.506;-122.806;2023-03-04T06:56:21;6.80;;;5.38;;
50853;SDS011;44154;45.506;-122.806;2023-03-04T06:58:48;5.20;;;4.18;;
50853;SDS011;44154;45.506;-122.806;2023-03-04T07:01:18;5.30;;;3.70;;
50853;SDS011;44154;45.506;-122.806;2023-03-04T07:03:46;6.00;;;3.80;;
50853;SDS011;44154;45.506;-122.806;2023-03-04T07:06:14;4.90;;;4.05;;
50853;SDS011;44154;45.506;-122.806;2023-03-04T07:08:43;6.30;;;4.15;;
50853;SDS011;44154;45.506;-122.806;2023-03-04T07:11:10;4.50;;;3.95;;
50853;SDS011;44154;45.506;-122.806;2023-03-04T07:13:37;7.40;;;4.10;;
50853;SDS011;44154;45.506;-122.806;2023-03-04T07:16:04;4.30;;;3.72;;
50853;SDS011;44154;45.506;-122.806;2023-03-04T07:18:36;4.80;;;4.00;;
50853;SDS011;44154;45.506;-122.806;2023-03-04T07:21:02;5.60;;;4.25;;
50853;SDS011;44154;45.506;-122.806;2023-03-04T07:23:29;4.65;;;3.72;;
50853;SDS011;44154;45.506;-122.806;2023-03-04T07:25:55;4.40;;;3.70;;
50853;SDS011;44154;45.506;-122.806;2023-03-04T07:28:21;4.35;;;3.60;;
50853;SDS011;44154;45.506;-122.806;2023-03-04T07:30:47;5.07;;;3.72;;
50853;SDS011;44154;45.506;-122.806;2023-03-04T07:33:14;4.32;;;3.55;;
50853;SDS011;44154;45.506;-122.806;2023-03-04T07:35:40;4.85;;;3.60;;
50853;SDS011;44154;45.506;-122.806;2023-03-04T07:38:07;5.18;;;4.03;;
50853;SDS011;44154;45.506;-122.806;2023-03-04T07:40:33;5.82;;;3.90;;
50853;SDS011;44154;45.506;-122.806;2023-03-04T07:42:59;5.90;;;3.85;;
50853;SDS011;44154;45.506;-122.806;2023-03-04T07:45:25;5.22;;;3.75;;
50853;SDS011;44154;45.506;-122.806;2023-03-04T07:47:52;18.30;;;16.60;;
50853;SDS011;44154;45.506;-122.806;2023-03-04T07:50:18;10.93;;;9.70;;
50853;SDS011;44154;45.506;-122.806;2023-03-04T07:52:47;10.15;;;9.15;;
50853;SDS011;44154;45.506;-122.806;2023-03-04T07:55:15;8.82;;;7.93;;
50853;SDS011;44154;45.506;-122.806;2023-03-04T07:57:42;8.20;;;7.40;;
50853;SDS011;44154;45.506;-122.806;2023-03-04T08:00:10;11.18;;;6.00;;
50853;SDS011;44154;45.506;-122.806;2023-03-04T08:02:39;9.52;;;5.63;;
50853;SDS011;44154;45.506;-122.806;2023-03-04T08:05:05;6.80;;;4.93;;
50853;SDS011;44154;45.506;-122.806;2023-03-04T08:07:32;9.23;;;5.57;;
50853;SDS011;44154;45.506;-122.806;2023-03-04T08:09:58;7.30;;;5.85;;
50853;SDS011;44154;45.506;-122.806;2023-03-04T08:12:24;7.90;;;5.57;;
50853;SDS011;44154;45.506;-122.806;2023-03-04T08:14:52;6.78;;;5.50;;
50853;SDS011;44154;45.506;-122.806;2023-03-04T08:17:18;7.78;;;5.10;;
50853;SDS011;44154;45.506;-122.806;2023-03-04T08:19:45;7.30;;;5.95;;
50853;SDS011;44154;45.506;-122.806;2023-03-04T08:22:11;8.73;;;5.82;;
50853;SDS011;44154;45.506;-122.806;2023-03-04T08:24:37;23.88;;;21.63;;
50853;SDS011;44154;45.506;-122.806;2023-03-04T08:27:04;19.02;;;17.15;;
50853;SDS011;44154;45.506;-122.806;2023-03-04T08:29:30;10.57;;;9.48;;
50853;SDS011;44154;45.506;-122.806;2023-03-04T08:31:57;8.07;;;7.32;;
50853;SDS011;44154;45.506;-122.806;2023-03-04T08:34:24;7.72;;;6.93;;
50853;SDS011;44154;45.506;-122.806;2023-03-04T08:36:52;8.18;;;7.38;;
50853;SDS011;44154;45.506;-122.806;2023-03-04T08:39:19;8.45;;;7.63;;
50853;SDS011;44154;45.506;-122.806;2023-03-04T08:41:45;8.13;;;7.32;;
50853;SDS011;44154;45.506;-122.806;2023-03-04T08:44:12;9.30;;;7.88;;
50853;SDS011;44154;45.506;-122.806;2023-03-04T08:46:40;8.95;;;7.55;;
50853;SDS011;44154;45.506;-122.806;2023-03-04T08:49:07;7.88;;;7.07;;
50853;SDS011;44154;45.506;-122.806;2023-03-04T08:51:35;9.40;;;7.13;;
50853;SDS011;44154;45.506;-122.806;2023-03-04T08:54:02;8.30;;;7.47;;
50853;SDS011;44154;45.506;-122.806;2023-03-04T08:56:29;8.23;;;7.43;;
50853;SDS011;44154;45.506;-122.806;2023-03-04T08:58:55;17.08;;;15.57;;
50853;SDS011;44154;45.506;-122.806;2023-03-04T09:01:21;19.70;;;17.90;;
50853;SDS011;44154;45.506;-122.806;2023-03-04T09:03:47;10.88;;;9.77;;
50853;SDS011;44154;45.506;-122.806;2023-03-04T09:06:14;10.32;;;9.32;;
50853;SDS011;44154;45.506;-122.806;2023-03-04T09:08:42;9.65;;;8.75;;
50853;SDS011;44154;45.506;-122.806;2023-03-04T09:11:10;10.25;;;9.30;;
50853;SDS011;44154;45.506;-122.806;2023-03-04T09:13:37;9.63;;;8.68;;
50853;SDS011;44154;45.506;-122.806;2023-03-04T09:16:07;9.57;;;8.75;;
50853;SDS011;44154;45.506;-122.806;2023-03-04T09:18:38;8.90;;;8.07;;
50853;SDS011;44154;45.506;-122.806;2023-03-04T09:21:05;9.95;;;8.95;;
50853;SDS011;44154;45.506;-122.806;2023-03-04T09:23:33;9.57;;;8.68;;
50853;SDS011;44154;45.506;-122.806;2023-03-04T09:26:00;9.52;;;8.50;;
50853;SDS011;44154;45.506;-122.806;2023-03-04T09:28:26;8.90;;;8.10;;
50853;SDS011;44154;45.506;-122.806;2023-03-04T09:30:52;13.80;;;12.52;;
50853;SDS011;44154;45.506;-122.806;2023-03-04T09:33:18;20.15;;;18.35;;
50853;SDS011;44154;45.506;-122.806;2023-03-04T09:35:44;12.73;;;11.52;;
50853;SDS011;44154;45.506;-122.806;2023-03-04T09:38:13;9.65;;;8.77;;
50853;SDS011;44154;45.506;-122.806;2023-03-04T09:40:40;10.52;;;9.63;;
50853;SDS011;44154;45.506;-122.806;2023-03-04T09:43:13;10.07;;;9.18;;
50853;SDS011;44154;45.506;-122.806;2023-03-04T09:45:52;10.18;;;9.07;;
50853;SDS011;44154;45.506;-122.806;2023-03-04T09:48:23;10.23;;;9.30;;
50853;SDS011;44154;45.506;-122.806;2023-03-04T09:50:58;10.35;;;9.35;;
50853;SDS011;44154;45.506;-122.806;2023-03-04T09:56:26;9.48;;;8.57;;
50853;SDS011;44154;45.506;-122.806;2023-03-04T09:59:02;10.73;;;9.65;;
50853;SDS011;44154;45.506;-122.806;2023-03-04T10:01:41;13.00;;;11.75;;
50853;SDS011;44154;45.506;-122.806;2023-03-04T10:06:55;13.45;;;12.07;;
50853;SDS011;44154;45.506;-122.806;2023-03-04T10:09:23;9.13;;;8.25;;
50853;SDS011;44154;45.506;-122.806;2023-03-04T10:11:59;11.00;;;10.00;;
50853;SDS011;44154;45.506;-122.806;2023-03-04T10:20:10;10.38;;;9.38;;
50853;SDS011;44154;45.506;-122.806;2023-03-04T10:22:43;10.27;;;9.27;;
50853;SDS011;44154;45.506;-122.806;2023-03-04T10:27:58;10.45;;;9.45;;
50853;SDS011;44154;45.506;-122.806;2023-03-04T10:31:01;10.48;;;9.48;;
50853;SDS011;44154;45.506;-122.806;2023-03-04T10:33:28;13.27;;;11.88;;
50853;SDS011;44154;45.506;-122.806;2023-03-04T10:38:43;10.65;;;9.65;;
50853;SDS011;44154;45.506;-122.806;2023-03-04T10:41:14;9.80;;;8.90;;
50853;SDS011;44154;45.506;-122.806;2023-03-04T10:43:42;10.05;;;9.15;;
50853;SDS011;44154;45.506;-122.806;2023-03-04T10:46:14;9.80;;;8.90;;
50853;SDS011;44154;45.506;-122.806;2023-03-04T10:48:41;10.20;;;9.20;;
50853;SDS011;44154;45.506;-122.806;2023-03-04T10:51:15;10.43;;;9.43;;
50853;SDS011;44154;45.506;-122.806;2023-03-04T10:53:51;9.02;;;8.13;;
50853;SDS011;44154;45.506;-122.806;2023-03-04T10:56:42;9.65;;;8.75;;
50853;SDS011;44154;45.506;-122.806;2023-03-04T11:01:57;9.50;;;8.60;;
50853;SDS011;44154;45.506;-122.806;2023-03-04T11:04:24;16.70;;;15.13;;
50853;SDS011;44154;45.506;-122.806;2023-03-04T11:06:52;17.65;;;16.05;;
50853;SDS011;44154;45.506;-122.806;2023-03-04T11:09:28;10.63;;;9.63;;
50853;SDS011;44154;45.506;-122.806;2023-03-04T11:11:59;9.30;;;8.40;;
50853;SDS011;44154;45.506;-122.806;2023-03-04T11:14:29;9.77;;;8.75;;
50853;SDS011;44154;45.506;-122.806;2023-03-04T11:17:02;9.38;;;8.50;;
50853;SDS011;44154;45.506;-122.806;2023-03-04T11:22:27;9.80;;;8.80;;
50853;SDS011;44154;45.506;-122.806;2023-03-04T11:24:56;9.70;;;8.80;;
50853;SDS011;44154;45.506;-122.806;2023-03-04T11:27:35;8.63;;;7.82;;
50853;SDS011;44154;45.506;-122.806;2023-03-04T11:32:45;9.48;;;8.60;;
50853;SDS011;44154;45.506;-122.806;2023-03-04T11:37:56;14.48;;;13.18;;
50853;SDS011;44154;45.506;-122.806;2023-03-04T11:41:11;10.02;;;8.27;;
50853;SDS011;44154;45.506;-122.806;2023-03-04T11:43:38;9.20;;;8.40;;
50853;SDS011;44154;45.506;-122.806;2023-03-04T11:52:26;9.60;;;8.70;;
50853;SDS011;44154;45.506;-122.806;2023-03-04T11:55:02;9.60;;;8.70;;
50853;SDS011;44154;45.506;-122.806;2023-03-04T12:02:42;9.35;;;8.43;;
50853;SDS011;44154;45.506;-122.806;2023-03-04T12:05:17;16.17;;;14.75;;
50853;SDS011;44154;45.506;-122.806;2023-03-04T12:13:32;9.57;;;8.60;;
50853;SDS011;44154;45.506;-122.806;2023-03-04T12:24:27;9.10;;;7.82;;
50853;SDS011;44154;45.506;-122.806;2023-03-04T12:32:47;9.65;;;8.75;;
50853;SDS011;44154;45.506;-122.806;2023-03-04T12:37:56;15.48;;;14.07;;
50853;SDS011;44154;45.506;-122.806;2023-03-04T12:41:08;9.43;;;8.60;;
50853;SDS011;44154;45.506;-122.806;2023-03-04T12:46:34;8.48;;;7.68;;
50853;SDS011;44154;45.506;-122.806;2023-03-04T12:51:52;8.15;;;7.35;;
50853;SDS011;44154;45.506;-122.806;2023-03-04T12:54:23;8.25;;;7.45;;
50853;SDS011;44154;45.506;-122.806;2023-03-04T12:57:23;8.05;;;7.25;;
50853;SDS011;44154;45.506;-122.806;2023-03-04T13:00:12;8.25;;;7.55;;
50853;SDS011;44154;45.506;-122.806;2023-03-04T13:03:05;8.77;;;7.97;;
50853;SDS011;44154;45.506;-122.806;2023-03-04T13:05:44;10.20;;;9.20;;
50853;SDS011;44154;45.506;-122.806;2023-03-04T13:11:31;9.50;;;8.60;;
50853;SDS011;44154;45.506;-122.806;2023-03-04T13:14:21;8.88;;;8.07;;
50853;SDS011;44154;45.506;-122.806;2023-03-04T13:16:50;9.13;;;8.32;;
50853;SDS011;44154;45.506;-122.806;2023-03-04T13:41:10;9.07;;;8.18;;
50853;SDS011;44154;45.506;-122.806;2023-03-04T13:43:40;9.40;;;8.50;;
50853;SDS011;44154;45.506;-122.806;2023-03-04T13:51:17;8.52;;;7.72;;
50853;SDS011;44154;45.506;-122.806;2023-03-04T14:01:58;8.25;;;7.50;;
50853;SDS011;44154;45.506;-122.806;2023-03-04T14:04:33;10.50;;;9.50;;
50853;SDS011;44154;45.506;-122.806;2023-03-04T14:07:03;14.73;;;13.43;;
50853;SDS011;44154;45.506;-122.806;2023-03-04T14:09:52;9.88;;;8.98;;
50853;SDS011;44154;45.506;-122.806;2023-03-04T14:12:22;8.77;;;7.97;;
50853;SDS011;44154;45.506;-122.806;2023-03-04T14:14:50;8.98;;;8.07;;
50853;SDS011;44154;45.506;-122.806;2023-03-04T14:17:23;9.45;;;8.55;;
50853;SDS011;44154;45.506;-122.806;2023-03-04T14:19:56;9.10;;;8.20;;
50853;SDS011;44154;45.506;-122.806;2023-03-04T14:22:39;8.90;;;8.10;;
50853;SDS011;44154;45.506;-122.806;2023-03-04T14:25:18;8.13;;;7.32;;
50853;SDS011;44154;45.506;-122.806;2023-03-04T14:27:46;8.25;;;7.45;;
50853;SDS011;44154;45.506;-122.806;2023-03-04T14:30:20;8.77;;;7.97;;
50853;SDS011;44154;45.506;-122.806;2023-03-04T14:32:52;8.20;;;7.40;;
50853;SDS011;44154;45.506;-122.806;2023-03-04T14:35:28;13.52;;;12.32;;
50853;SDS011;44154;45.506;-122.806;2023-03-04T14:40:49;9.65;;;8.75;;
50853;SDS011;44154;45.506;-122.806;2023-03-04T14:43:20;8.38;;;7.57;;
50853;SDS011;44154;45.506;-122.806;2023-03-04T14:45:48;8.70;;;7.90;;
50853;SDS011;44154;45.506;-122.806;2023-03-04T14:48:21;8.45;;;7.65;;
50853;SDS011;44154;45.506;-122.806;2023-03-04T14:50:53;8.63;;;7.75;;
50853;SDS011;44154;45.506;-122.806;2023-03-04T14:53:21;10.10;;;9.20;;
50853;SDS011;44154;45.506;-122.806;2023-03-04T14:55:59;14.10;;;12.70;;
50853;SDS011;44154;45.506;-122.806;2023-03-04T14:58:34;9.57;;;8.57;;
50853;SDS011;44154;45.506;-122.806;2023-03-04T15:03:42;6.97;;;6.28;;
50853;SDS011;44154;45.506;-122.806;2023-03-04T15:06:21;6.53;;;5.93;;
50853;SDS011;44154;45.506;-122.806;2023-03-04T15:08:59;7.38;;;6.63;;
50853;SDS011;44154;45.506;-122.806;2023-03-04T15:11:46;7.90;;;7.20;;
50853;SDS011;44154;45.506;-122.806;2023-03-04T15:17:23;9.48;;;8.57;;
50853;SDS011;44154;45.506;-122.806;2023-03-04T15:22:57;10.82;;;8.82;;
50853;SDS011;44154;45.506;-122.806;2023-03-04T15:27:55;7.35;;;5.90;;
50853;SDS011;44154;45.506;-122.806;2023-03-04T15:30:23;6.50;;;5.72;;
50853;SDS011;44154;45.506;-122.806;2023-03-04T15:32:55;6.47;;;5.65;;
50853;SDS011;44154;45.506;-122.806;2023-03-04T15:35:23;8.18;;;5.72;;
50853;SDS011;44154;45.506;-122.806;2023-03-04T15:37:51;8.63;;;6.15;;
50853;SDS011;44154;45.506;-122.806;2023-03-04T15:42:45;7.30;;;6.60;;
50853;SDS011;44154;45.506;-122.806;2023-03-04T15:45:30;7.82;;;6.40;;
50853;SDS011;44154;45.506;-122.806;2023-03-04T15:48:05;7.65;;;6.28;;
50853;SDS011;44154;45.506;-122.806;2023-03-04T15:50:35;7.53;;;6.70;;
50853;SDS011;44154;45.506;-122.806;2023-03-04T15:53:25;5.97;;;5.30;;
50853;SDS011;44154;45.506;-122.806;2023-03-04T15:55:56;5.47;;;4.20;;
50853;SDS011;44154;45.506;-122.806;2023-03-04T15:58:24;4.47;;;3.88;;
50853;SDS011;44154;45.506;-122.806;2023-03-04T16:00:51;4.22;;;3.58;;
50853;SDS011;44154;45.506;-122.806;2023-03-04T16:03:18;4.88;;;3.67;;
50853;SDS011;44154;45.506;-122.806;2023-03-04T16:05:47;5.82;;;3.88;;
50853;SDS011;44154;45.506;-122.806;2023-03-04T16:08:15;5.05;;;4.03;;
50853;SDS011;44154;45.506;-122.806;2023-03-04T16:10:44;5.93;;;4.28;;
50853;SDS011;44154;45.506;-122.806;2023-03-04T16:13:14;5.43;;;3.88;;
50853;SDS011;44154;45.506;-122.806;2023-03-04T16:15:44;4.88;;;3.55;;
50853;SDS011;44154;45.506;-122.806;2023-03-04T16:18:11;6.43;;;4.07;;
50853;SDS011;44154;45.506;-122.806;2023-03-04T16:20:39;10.45;;;4.28;;
50853;SDS011;44154;45.506;-122.806;2023-03-04T16:23:09;5.60;;;3.80;;
50853;SDS011;44154;45.506;-122.806;2023-03-04T16:25:41;4.15;;;3.30;;